createdAt,value
2023-05-10T00:01:15.773Z,1.87
2023-05-10T00:03:42.510Z,2.00
2023-05-10T00:06:09.181Z,1.70
2023-05-10T00:08:35.793Z,1.43
2023-05-10T00:18:37.498Z,1.80
2023-05-10T00:21:04.348Z,2.07
2023-05-10T00:23:30.889Z,1.63
2023-05-10T00:28:24.071Z,1.70
2023-05-10T00:30:50.659Z,1.67
2023-05-10T00:33:17.313Z,1.70
2023-05-10T00:35:43.898Z,1.70
2023-05-10T00:43:13.856Z,1.67
2023-05-10T00:45:41.253Z,1.80
2023-05-10T00:50:41.000Z,1.87
2023-05-10T01:00:44.698Z,1.87
2023-05-10T01:03:12.519Z,1.90
2023-05-10T01:05:39.251Z,1.73
2023-05-10T01:08:06.037Z,1.73
2023-05-10T01:10:32.924Z,1.37
2023-05-10T01:13:00.578Z,1.40
2023-05-10T01:15:27.717Z,1.50
2023-05-10T01:17:55.022Z,1.50
2023-05-10T01:23:12.541Z,1.40
2023-05-10T01:26:14.897Z,1.73
2023-05-10T01:31:39.895Z,1.40
2023-05-10T01:34:17.047Z,1.60
2023-05-10T01:36:51.054Z,1.40
2023-05-10T01:43:00.320Z,1.60
2023-05-10T01:48:29.428Z,1.50
2023-05-10T01:50:57.541Z,1.53
2023-05-10T01:58:32.382Z,1.37
2023-05-10T02:01:02.315Z,1.57
2023-05-10T02:03:31.885Z,1.40
2023-05-10T02:05:59.814Z,1.80
2023-05-10T02:08:27.198Z,1.73
2023-05-10T02:13:30.513Z,1.80
2023-05-10T02:15:58.472Z,1.53
2023-05-10T02:18:26.642Z,1.43
2023-05-10T02:20:54.933Z,1.50
2023-05-10T02:23:22.573Z,1.30
2023-05-10T02:25:50.675Z,1.70
2023-05-10T02:28:18.991Z,1.70
2023-05-10T02:30:46.263Z,1.30
2023-05-10T02:43:24.426Z,1.37
2023-05-10T02:48:22.664Z,1.20
2023-05-10T02:53:35.351Z,1.63
2023-05-10T02:58:39.815Z,1.50
2023-05-10T03:01:08.385Z,1.20
2023-05-10T03:11:23.703Z,1.03
2023-05-10T03:14:18.565Z,1.93
2023-05-10T03:17:05.076Z,1.20
2023-05-10T03:32:31.108Z,1.10
2023-05-10T03:45:03.925Z,1.20
2023-05-10T03:47:30.705Z,1.07
2023-05-10T03:55:00.266Z,1.57
2023-05-10T04:05:02.680Z,0.90
2023-05-10T04:07:29.370Z,1.23
2023-05-10T04:17:30.381Z,1.13
2023-05-10T04:22:29.926Z,1.20
2023-05-10T04:24:56.447Z,1.10
2023-05-10T04:27:23.004Z,1.07
2023-05-10T04:29:49.568Z,1.10
2023-05-10T04:32:17.337Z,1.00
2023-05-10T04:34:44.678Z,0.83
2023-05-10T04:37:11.224Z,1.03
2023-05-10T04:39:38.833Z,1.10
2023-05-10T04:42:06.689Z,1.13
2023-05-10T04:44:33.852Z,1.07
2023-05-10T04:47:00.953Z,0.90
2023-05-10T04:49:27.481Z,0.93
2023-05-10T04:51:54.000Z,0.90
2023-05-10T04:56:52.248Z,1.70
2023-05-10T04:59:18.809Z,1.47
2023-05-10T05:01:45.421Z,1.10
2023-05-10T05:04:12.304Z,0.97
2023-05-10T05:06:38.874Z,1.27
2023-05-10T05:09:05.503Z,1.33
2023-05-10T05:11:32.016Z,1.00
2023-05-10T05:14:00.052Z,1.20
2023-05-10T05:18:58.678Z,1.10
2023-05-10T05:21:27.657Z,1.20
2023-05-10T05:23:54.200Z,1.07
2023-05-10T05:26:20.755Z,1.80
2023-05-10T05:31:20.648Z,1.77
2023-05-10T05:33:47.267Z,2.10
2023-05-10T05:36:13.891Z,2.07
2023-05-10T05:38:40.507Z,3.33
2023-05-10T05:41:07.096Z,3.87
2023-05-10T05:43:34.607Z,2.53
2023-05-10T05:48:34.165Z,1.90
2023-05-10T05:51:00.759Z,2.10
2023-05-10T05:53:27.366Z,2.20
2023-05-10T05:55:55.792Z,2.77
2023-05-10T05:58:23.561Z,3.40
2023-05-10T06:00:50.786Z,2.43
2023-05-10T06:05:49.342Z,1.60
2023-05-10T06:10:47.479Z,1.80
2023-05-10T06:15:45.516Z,2.80
2023-05-10T06:18:12.143Z,2.20
2023-05-10T06:25:41.701Z,1.63
2023-05-10T06:30:39.816Z,1.90
2023-05-10T06:33:06.448Z,1.80
2023-05-10T06:35:34.360Z,1.50
2023-05-10T06:38:01.196Z,2.23
2023-05-10T06:40:28.303Z,2.43
2023-05-10T06:42:54.852Z,2.07
2023-05-10T06:45:21.596Z,1.93
2023-05-10T06:47:48.287Z,1.60
2023-05-10T06:50:14.922Z,1.67
2023-05-10T06:52:41.504Z,3.40
2023-05-10T06:55:09.203Z,1.73
2023-05-10T06:57:36.317Z,1.37
2023-05-10T07:00:05.207Z,1.53
2023-05-10T07:02:31.993Z,2.17
2023-05-10T07:05:01.702Z,1.90
2023-05-10T07:15:05.192Z,1.20
2023-05-10T07:20:04.549Z,1.43
2023-05-10T07:25:03.282Z,1.60
2023-05-10T07:27:29.818Z,1.60
2023-05-10T07:29:57.476Z,1.57
2023-05-10T07:32:24.187Z,2.00
2023-05-10T07:34:50.827Z,2.83
2023-05-10T07:42:20.434Z,3.47
2023-05-10T07:44:47.055Z,1.20
2023-05-10T07:47:13.588Z,1.60
2023-05-10T07:49:40.188Z,2.83
2023-05-10T07:52:06.763Z,1.40
2023-05-10T07:54:33.501Z,2.43
2023-05-10T07:57:01.351Z,1.50
2023-05-10T07:59:28.541Z,1.77
2023-05-10T08:01:55.458Z,1.50
2023-05-10T08:04:22.154Z,2.20
2023-05-10T08:06:48.719Z,1.40
2023-05-10T08:09:15.385Z,2.70
2023-05-10T08:11:41.920Z,1.67
2023-05-10T08:19:11.466Z,1.23
2023-05-10T08:21:38.287Z,2.20
2023-05-10T08:24:05.673Z,0.90
2023-05-10T08:31:36.746Z,1.10
2023-05-10T08:34:03.310Z,1.80
2023-05-10T08:36:29.982Z,1.57
2023-05-10T08:38:56.870Z,1.90
2023-05-10T08:41:27.729Z,1.17
2023-05-10T08:43:55.379Z,2.57
2023-05-10T08:46:23.977Z,1.80
2023-05-10T08:48:52.231Z,1.13
2023-05-10T08:51:22.782Z,1.97
2023-05-10T08:53:49.479Z,2.63
2023-05-10T08:56:17.088Z,1.37
2023-05-10T08:58:43.721Z,1.50
2023-05-10T09:01:11.220Z,1.20
2023-05-10T09:06:14.096Z,0.83
2023-05-10T09:13:46.370Z,1.63
2023-05-10T09:16:21.277Z,0.80
2023-05-10T09:18:48.858Z,1.10
2023-05-10T09:21:15.771Z,2.17
2023-05-10T09:26:23.738Z,1.23
2023-05-10T09:29:00.904Z,1.27
2023-05-10T09:31:51.848Z,1.40
2023-05-10T09:34:20.366Z,1.57
2023-05-10T09:36:54.242Z,2.10
2023-05-10T09:39:21.219Z,1.43
2023-05-10T09:41:48.182Z,1.10
2023-05-10T09:44:19.479Z,1.30
2023-05-10T09:46:51.178Z,0.80
2023-05-10T09:49:17.764Z,1.30
2023-05-10T09:51:44.333Z,0.90
2023-05-10T09:54:12.825Z,1.10
2023-05-10T09:56:41.200Z,1.00
2023-05-10T09:59:11.718Z,1.10
2023-05-10T10:01:38.895Z,0.87
2023-05-10T10:04:07.462Z,0.80
2023-05-10T10:06:40.883Z,0.80
2023-05-10T10:09:08.427Z,1.70
2023-05-10T10:11:39.459Z,0.73
2023-05-10T10:14:06.634Z,1.07
2023-05-10T10:16:33.964Z,1.07
2023-05-10T10:19:01.438Z,0.97
2023-05-10T10:29:20.422Z,1.23
2023-05-10T10:32:18.383Z,1.00
2023-05-10T10:34:45.200Z,0.80
2023-05-10T10:37:11.823Z,1.63
2023-05-10T10:39:38.391Z,0.83
2023-05-10T10:42:05.792Z,0.67
2023-05-10T10:44:34.501Z,0.60
2023-05-10T10:50:05.615Z,1.17
2023-05-10T10:55:19.134Z,1.13
2023-05-10T11:00:25.147Z,0.80
2023-05-10T11:02:53.306Z,1.57
2023-05-10T11:05:39.218Z,0.77
2023-05-10T11:11:04.902Z,1.00
2023-05-10T11:13:43.019Z,0.63
2023-05-10T11:16:15.076Z,1.57
2023-05-10T11:18:41.832Z,0.93
2023-05-10T11:21:11.401Z,0.83
2023-05-10T11:23:41.196Z,0.80
2023-05-10T11:26:12.276Z,1.87
2023-05-10T11:28:48.492Z,0.80
2023-05-10T11:31:19.522Z,0.77
2023-05-10T11:36:27.093Z,0.90
2023-05-10T11:38:54.681Z,1.07
2023-05-10T11:41:24.639Z,0.97
2023-05-10T11:43:52.972Z,0.60
2023-05-10T11:46:21.464Z,0.60
2023-05-10T11:48:51.405Z,0.93
2023-05-10T11:51:25.041Z,1.03
2023-05-10T11:53:55.018Z,0.70
2023-05-10T11:56:21.735Z,1.37
2023-05-10T11:58:58.340Z,1.53
2023-05-10T12:01:28.487Z,0.87
2023-05-10T12:03:59.598Z,1.30
2023-05-10T12:06:32.612Z,0.73
2023-05-10T12:08:59.735Z,0.70
2023-05-10T12:11:28.154Z,0.90
2023-05-10T12:13:55.972Z,0.60
2023-05-10T12:16:24.985Z,0.60
2023-05-10T12:18:53.458Z,0.83
2023-05-10T12:21:21.590Z,1.83
2023-05-10T12:23:54.147Z,0.80
2023-05-10T12:29:16.763Z,0.83
2023-05-10T12:32:00.849Z,0.77
2023-05-10T12:34:31.164Z,0.50
2023-05-10T12:39:46.981Z,0.67
2023-05-10T12:44:45.252Z,1.00
2023-05-10T12:47:11.884Z,0.90
2023-05-10T12:49:38.916Z,0.83
2023-05-10T12:52:05.549Z,0.80
2023-05-10T12:54:32.120Z,0.70
2023-05-10T12:56:58.644Z,0.80
2023-05-10T13:01:57.942Z,1.20
2023-05-10T13:04:24.752Z,0.97
2023-05-10T13:06:51.793Z,0.60
2023-05-10T13:11:50.078Z,0.73
2023-05-10T13:16:48.549Z,1.13
2023-05-10T13:24:20.096Z,0.80
2023-05-10T13:26:46.759Z,0.90
2023-05-10T13:29:13.372Z,1.57
2023-05-10T13:31:40.024Z,0.93
2023-05-10T13:34:06.991Z,1.07
2023-05-10T13:36:33.661Z,0.90
2023-05-10T13:49:09.698Z,1.00
2023-05-10T13:51:36.676Z,1.03
2023-05-10T13:54:04.094Z,1.00
2023-05-10T13:56:30.734Z,0.80
2023-05-10T14:01:30.597Z,1.63
2023-05-10T14:03:57.358Z,1.40
2023-05-10T14:08:55.473Z,1.20
2023-05-10T14:11:24.404Z,1.20
2023-05-10T14:13:51.189Z,0.77
2023-05-10T14:16:17.779Z,2.33
2023-05-10T14:18:44.413Z,0.80
2023-05-10T14:21:11.183Z,0.80
2023-05-10T14:23:37.823Z,0.80
2023-05-10T14:26:04.499Z,0.83
2023-05-10T14:28:31.140Z,1.63
2023-05-10T14:36:00.947Z,0.83
2023-05-10T14:38:27.535Z,1.10
2023-05-10T14:40:54.122Z,0.77
2023-05-10T14:43:20.642Z,0.80
2023-05-10T14:45:47.661Z,1.07
2023-05-10T14:48:16.973Z,0.77
2023-05-10T14:50:43.900Z,1.23
2023-05-10T14:53:10.700Z,0.80
2023-05-10T14:55:37.785Z,1.13
2023-05-10T15:00:35.872Z,1.00
2023-05-10T15:03:03.279Z,0.67
2023-05-10T15:05:30.312Z,1.10
2023-05-10T15:07:57.244Z,0.70
2023-05-10T15:10:23.792Z,1.00
2023-05-10T15:12:51.285Z,0.70
2023-05-10T15:15:18.126Z,0.87
2023-05-10T15:17:45.039Z,1.10
2023-05-10T15:20:11.901Z,0.87
2023-05-10T15:22:39.202Z,0.80
2023-05-10T15:25:06.444Z,0.50
2023-05-10T15:27:33.042Z,0.77
2023-05-10T15:32:32.063Z,0.60
2023-05-10T15:34:59.147Z,1.10
2023-05-10T15:37:25.865Z,0.70
2023-05-10T15:39:52.413Z,1.47
2023-05-10T15:42:19.141Z,0.70
2023-05-10T15:44:45.955Z,0.90
2023-05-10T15:52:15.642Z,0.70
2023-05-10T15:54:42.304Z,0.80
2023-05-10T15:57:09.082Z,0.93
2023-05-10T15:59:35.759Z,0.83
2023-05-10T16:07:06.871Z,0.83
2023-05-10T16:14:36.565Z,0.90
2023-05-10T16:19:35.481Z,0.60
2023-05-10T16:22:02.242Z,0.70
2023-05-10T16:24:28.969Z,1.13
2023-05-10T16:26:55.529Z,0.83
2023-05-10T16:36:57.316Z,0.60
2023-05-10T16:39:23.859Z,0.80
2023-05-10T16:41:50.480Z,0.70
2023-05-10T16:44:19.624Z,1.07
2023-05-10T16:46:47.239Z,0.60
2023-05-10T16:49:13.918Z,1.03
2023-05-10T16:51:40.896Z,0.60
2023-05-10T16:54:07.696Z,0.73
2023-05-10T16:56:34.250Z,0.93
2023-05-10T16:59:00.840Z,0.70
2023-05-10T17:01:27.565Z,0.80
2023-05-10T17:03:54.307Z,0.60
2023-05-10T17:06:20.905Z,0.50
2023-05-10T17:08:47.617Z,0.87
2023-05-10T17:11:14.149Z,0.70
2023-05-10T17:13:40.680Z,1.37
2023-05-10T17:16:08.299Z,0.53
2023-05-10T17:18:35.064Z,0.97
2023-05-10T17:21:01.622Z,0.80
2023-05-10T17:23:28.261Z,1.23
2023-05-10T17:25:54.885Z,0.70
2023-05-10T17:28:21.820Z,0.87
2023-05-10T17:30:55.633Z,0.90
2023-05-10T17:33:22.143Z,0.70
2023-05-10T17:40:51.943Z,1.13
2023-05-10T17:43:18.528Z,0.90
2023-05-10T17:45:48.167Z,0.50
2023-05-10T17:48:14.747Z,1.10
2023-05-10T17:50:44.558Z,0.83
2023-05-10T17:53:11.220Z,0.50
2023-05-10T17:55:41.033Z,0.57
2023-05-10T17:58:07.974Z,1.07
2023-05-10T18:00:34.605Z,0.90
2023-05-10T18:03:02.217Z,0.60
2023-05-10T18:18:09.208Z,1.37
2023-05-10T18:23:07.387Z,0.70
2023-05-10T18:25:33.932Z,0.70
2023-05-10T18:28:00.726Z,1.00
2023-05-10T18:30:27.536Z,0.60
2023-05-10T18:32:54.945Z,0.70
2023-05-10T18:35:21.805Z,0.93
2023-05-10T18:37:48.841Z,0.70
2023-05-10T18:40:17.101Z,0.50
2023-05-10T18:42:44.044Z,0.70
2023-05-10T18:45:11.521Z,0.67
2023-05-10T18:47:38.149Z,0.50
2023-05-10T18:50:05.466Z,0.60
2023-05-10T18:52:32.093Z,0.60
2023-05-10T19:00:01.789Z,1.33
2023-05-10T19:04:59.849Z,1.13
2023-05-10T19:09:58.120Z,0.60
2023-05-10T19:12:24.744Z,0.67
2023-05-10T19:14:51.336Z,1.23
2023-05-10T19:17:17.949Z,1.27
2023-05-10T19:19:45.073Z,1.07
2023-05-10T19:22:12.631Z,1.00
2023-05-10T19:24:39.173Z,1.07
2023-05-10T19:32:09.174Z,1.50
2023-05-10T19:34:35.821Z,1.20
2023-05-10T19:37:02.403Z,1.13
2023-05-10T19:39:30.818Z,1.63
2023-05-10T19:41:57.566Z,1.50
2023-05-10T19:44:25.216Z,1.40
2023-05-10T19:54:27.327Z,0.97
2023-05-10T20:14:34.638Z,1.10
2023-05-10T20:17:01.186Z,0.80
2023-05-10T20:19:27.766Z,0.60
2023-05-10T20:21:56.040Z,1.50
2023-05-10T20:24:22.624Z,1.20
2023-05-10T20:26:49.212Z,1.10
2023-05-10T20:29:15.985Z,1.77
2023-05-10T20:36:45.699Z,0.70
2023-05-10T20:44:15.555Z,0.97
2023-05-10T20:46:42.149Z,0.83
2023-05-10T20:51:40.482Z,0.60
2023-05-10T20:54:07.049Z,1.03
2023-05-10T20:56:34.809Z,0.60
2023-05-10T20:59:01.448Z,0.70
2023-05-10T21:01:28.024Z,0.70
2023-05-10T21:03:54.623Z,0.70
2023-05-10T21:06:21.246Z,0.80
2023-05-10T21:08:47.768Z,0.50
2023-05-10T21:11:14.301Z,0.60
2023-05-10T21:13:41.088Z,0.70
2023-05-10T21:16:07.784Z,0.53
2023-05-10T21:18:34.488Z,0.57
2023-05-10T21:21:01.207Z,0.70
2023-05-10T21:23:27.824Z,1.17
2023-05-10T21:25:54.420Z,0.80
2023-05-10T21:28:21.030Z,0.50
2023-05-10T21:30:47.818Z,1.23
2023-05-10T21:33:14.494Z,0.87
2023-05-10T21:38:14.144Z,0.47
2023-05-10T21:40:40.806Z,1.10
2023-05-10T21:43:08.201Z,0.60
2023-05-10T21:45:36.317Z,0.53
2023-05-10T21:48:03.610Z,0.73
2023-05-10T21:50:30.150Z,0.70
2023-05-10T21:52:56.854Z,0.80
2023-05-10T21:57:55.169Z,0.60
2023-05-10T22:05:24.947Z,0.70
2023-05-10T22:07:51.550Z,1.97
2023-05-10T22:10:18.525Z,0.67
2023-05-10T22:12:45.228Z,0.80
2023-05-10T22:15:11.926Z,0.70
2023-05-10T22:17:40.786Z,1.07
2023-05-10T22:20:08.511Z,0.80
2023-05-10T22:22:35.068Z,1.33
2023-05-10T22:25:01.973Z,0.50
2023-05-10T22:27:28.585Z,1.00
2023-05-10T22:29:56.246Z,0.83
2023-05-10T22:32:22.926Z,0.60
2023-05-10T22:34:49.584Z,0.80
2023-05-10T22:37:17.902Z,0.60
2023-05-10T22:54:51.922Z,0.70
2023-05-10T23:02:22.054Z,0.70
2023-05-10T23:04:49.143Z,0.87
2023-05-10T23:07:15.826Z,0.70
2023-05-10T23:09:42.476Z,0.90
2023-05-10T23:17:13.559Z,0.70
2023-05-10T23:27:14.722Z,1.90
2023-05-10T23:37:16.825Z,1.17
2023-05-10T23:39:43.352Z,0.77
2023-05-10T23:42:09.958Z,1.30
2023-05-10T23:44:36.481Z,0.50
2023-05-10T23:49:34.527Z,0.70
